Time;durP1;ratioP1;P1;durP2;ratioP2;P2;SDS_P1;SDS_P2;PMS_P1;PMS_P2;Temp;Humidity;BMP_temperature;BMP_pressure;BME280_temperature;BME280_humidity;BME280_pressure;Samples;Min_cycle;Max_cycle;Signal;HPM_P1;HPM_P2
2022/06/15 00:01:34;;;;;;;0.00;0.00;;;14.50;1.00;;;;;;5053734;28;20506;-66
2022/06/15 00:04:04;;;;;;;0.00;0.00;;;14.60;1.00;;;;;;5054380;28;20222;-67
2022/06/15 00:06:37;;;;;;;0.10;0.10;;;14.70;1.00;;;;;;5053230;28;20240;-67
2022/06/15 00:09:05;;;;;;;0.05;0.05;;;14.70;99.90;;;;;;5053951;28;20186;-67
2022/06/15 00:11:36;;;;;;;0.00;0.00;;;14.40;1.00;;;;;;5054528;28;20190;-66
2022/06/15 00:14:09;;;;;;;0.10;0.10;;;14.40;1.00;;;;;;5054556;28;20275;-66
2022/06/15 00:16:37;;;;;;;0.10;0.10;;;14.30;99.90;;;;;;5053949;28;20218;-66
2022/06/15 00:19:07;;;;;;;0.10;0.10;;;14.20;99.90;;;;;;5053884;28;20214;-66
2022/06/15 00:21:35;;;;;;;0.00;0.00;;;14.20;99.90;;;;;;5054146;28;20198;-66
2022/06/15 00:24:03;;;;;;;0.00;0.00;;;14.00;1.00;;;;;;5053846;28;20723;-66
2022/06/15 00:26:31;;;;;;;0.00;0.00;;;13.90;1.00;;;;;;5053718;28;20206;-66
2022/06/15 00:28:59;;;;;;;0.00;0.00;;;14.00;1.00;;;;;;5053801;28;20535;-67
2022/06/15 00:31:26;;;;;;;0.10;0.10;;;14.00;1.00;;;;;;5053621;28;20205;-67
2022/06/15 00:33:54;;;;;;;0.00;0.00;;;14.00;1.00;;;;;;5052941;28;20218;-67
2022/06/15 00:36:24;;;;;;;0.10;0.10;;;13.70;1.00;;;;;;5040395;28;20241;-67
2022/06/15 00:38:54;;;;;;;0.00;0.00;;;13.70;1.00;;;;;;5054731;28;20218;-67
2022/06/15 00:41:24;;;;;;;0.00;0.00;;;13.60;1.00;;;;;;5052318;28;20217;-66
2022/06/15 00:43:54;;;;;;;0.00;0.00;;;13.60;99.90;;;;;;5052890;28;20218;-66
2022/06/15 00:46:26;;;;;;;0.00;0.00;;;13.50;99.90;;;;;;5052945;28;20281;-66
2022/06/15 00:48:57;;;;;;;0.00;0.00;;;13.50;99.90;;;;;;5052590;28;20202;-67
2022/06/15 00:51:27;;;;;;;0.00;0.00;;;13.40;99.90;;;;;;5053941;28;20186;-67
2022/06/15 00:53:56;;;;;;;0.10;0.10;;;13.30;1.00;;;;;;5053040;28;20284;-66
2022/06/15 00:56:26;;;;;;;0.00;0.00;;;13.30;99.90;;;;;;5050338;28;20194;-66
2022/06/15 00:59:00;;;;;;;0.00;0.00;;;13.40;99.90;;;;;;5050826;28;20226;-66
2022/06/15 01:01:28;;;;;;;0.00;0.00;;;13.20;1.00;;;;;;5052856;28;20198;-66
2022/06/15 01:03:58;;;;;;;0.10;0.10;;;13.20;1.00;;;;;;5036754;28;20318;-66
2022/06/15 01:06:39;;;;;;;0.00;0.00;;;13.10;1.00;;;;;;5048632;28;20256;-66
2022/06/15 01:09:13;;;;;;;0.00;0.00;;;13.10;1.00;;;;;;5044580;28;20190;-65
2022/06/15 01:11:54;;;;;;;0.00;0.00;;;13.00;1.00;;;;;;5052951;28;20231;-66
2022/06/15 01:14:43;;;;;;;0.10;0.10;;;13.00;1.00;;;;;;5046516;28;22323;-66
2022/06/15 01:17:21;;;;;;;0.10;0.10;;;13.10;1.00;;;;;;5046634;28;20194;-65
2022/06/15 01:20:09;;;;;;;0.10;0.10;;;13.10;1.00;;;;;;5048315;28;20584;-66
2022/06/15 01:23:12;;;;;;;0.10;0.10;;;13.10;1.00;;;;;;5040430;28;20273;-66
2022/06/15 01:25:43;;;;;;;0.10;0.10;;;13.00;1.00;;;;;;5065394;28;20197;-66
2022/06/15 01:28:35;;;;;;;0.08;0.08;;;13.00;1.00;;;;;;5049004;28;20571;-65
2022/06/15 01:31:14;;;;;;;0.10;0.10;;;13.00;1.00;;;;;;5049594;28;20211;-65
2022/06/15 01:33:53;;;;;;;0.00;0.00;;;12.90;1.00;;;;;;5049541;28;20226;-65
2022/06/15 01:36:29;;;;;;;0.10;0.10;;;12.90;1.00;;;;;;5041088;28;20206;-65
2022/06/15 01:39:03;;;;;;;0.03;0.03;;;12.90;1.00;;;;;;5032803;28;20245;-65
2022/06/15 01:41:35;;;;;;;0.10;0.10;;;12.90;1.00;;;;;;5050928;28;20201;-65
2022/06/15 01:44:09;;;;;;;0.00;0.00;;;12.80;1.00;;;;;;5032930;28;20226;-65
2022/06/15 01:46:41;;;;;;;0.10;0.10;;;12.70;1.00;;;;;;5034246;28;20297;-65
2022/06/15 01:49:15;;;;;;;0.10;0.10;;;12.60;1.00;;;;;;5044207;28;20203;-65
2022/06/15 01:51:47;;;;;;;0.10;0.10;;;12.50;11.00;;;;;;5057608;28;20194;-65
2022/06/15 01:54:22;;;;;;;0.10;0.10;;;12.40;67.60;;;;;;5050199;28;20261;-65
2022/06/15 01:56:52;;;;;;;0.10;0.10;;;12.40;99.90;;;;;;5050431;28;20208;-65
2022/06/15 01:59:27;;;;;;;0.10;0.10;;;12.30;99.90;;;;;;5050326;28;20211;-65
2022/06/15 02:02:03;;;;;;;0.10;0.10;;;12.30;99.90;;;;;;5050811;28;20201;-65
2022/06/15 02:04:38;;;;;;;0.10;0.10;;;12.30;99.90;;;;;;5050714;28;20221;-65
2022/06/15 02:07:15;;;;;;;0.10;0.10;;;12.20;99.90;;;;;;5043848;28;20581;-65
2022/06/15 02:09:48;;;;;;;0.10;0.10;;;12.20;99.90;;;;;;5050114;28;20206;-66
2022/06/15 02:12:21;;;;;;;0.10;0.10;;;12.10;99.90;;;;;;5040914;28;20194;-66
2022/06/15 02:14:53;;;;;;;0.10;0.10;;;12.00;99.90;;;;;;5046781;28;20240;-66
2022/06/15 02:17:26;;;;;;;0.03;0.03;;;11.80;99.90;;;;;;5044443;28;20225;-66
2022/06/15 02:20:00;;;;;;;0.10;0.10;;;11.80;1.00;;;;;;5043242;28;20559;-67
2022/06/15 02:22:32;;;;;;;0.10;0.10;;;11.70;1.00;;;;;;5049662;28;20210;-65
2022/06/15 02:25:07;;;;;;;0.10;0.10;;;11.70;1.00;;;;;;5042938;28;20195;-66
2022/06/15 02:27:38;;;;;;;0.10;0.10;;;11.70;1.00;;;;;;5040179;28;20202;-66
2022/06/15 02:30:14;;;;;;;0.10;0.10;;;11.50;1.00;;;;;;5050450;28;20194;-66
2022/06/15 02:32:47;;;;;;;0.10;0.10;;;11.60;1.00;;;;;;5047995;28;20220;-66
2022/06/15 02:35:18;;;;;;;0.10;0.10;;;11.50;1.00;;;;;;5050073;28;20695;-66
2022/06/15 02:37:50;;;;;;;0.10;0.10;;;11.50;1.00;;;;;;5044839;28;20206;-66
2022/06/15 02:40:23;;;;;;;0.10;0.10;;;11.60;1.00;;;;;;5050348;28;20229;-66
2022/06/15 02:42:51;;;;;;;0.10;0.10;;;11.50;1.00;;;;;;5033794;28;20317;-68
2022/06/15 02:45:24;;;;;;;0.00;0.00;;;11.60;1.00;;;;;;5030986;28;20206;-68
2022/06/15 02:47:56;;;;;;;0.10;0.10;;;11.50;1.00;;;;;;5044449;28;20198;-68
2022/06/15 02:50:29;;;;;;;0.10;0.10;;;11.60;1.00;;;;;;5052404;28;20306;-67
2022/06/15 02:53:04;;;;;;;0.00;0.00;;;11.50;1.00;;;;;;5041909;28;20643;-67
2022/06/15 02:55:34;;;;;;;0.10;0.10;;;11.50;1.00;;;;;;5041157;28;20208;-68
2022/06/15 02:58:12;;;;;;;0.10;0.10;;;11.50;1.00;;;;;;5035562;28;20612;-67
2022/06/15 03:00:47;;;;;;;0.10;0.10;;;11.40;1.00;;;;;;5044779;28;20248;-67
2022/06/15 03:03:22;;;;;;;0.10;0.10;;;11.40;1.00;;;;;;5049907;28;20697;-67
2022/06/15 03:05:56;;;;;;;0.10;0.10;;;11.40;1.00;;;;;;5040242;28;20213;-68
2022/06/15 03:08:25;;;;;;;0.05;0.05;;;11.40;1.00;;;;;;5032870;28;20682;-68
2022/06/15 03:11:01;;;;;;;0.10;0.10;;;11.30;1.00;;;;;;5030677;28;20195;-68
2022/06/15 03:13:29;;;;;;;0.10;0.10;;;11.40;1.00;;;;;;5035675;28;20370;-66
2022/06/15 03:16:01;;;;;;;0.10;0.10;;;11.40;1.00;;;;;;5046036;28;20289;-66
2022/06/15 03:18:31;;;;;;;0.10;0.10;;;11.40;1.00;;;;;;5049293;28;20202;-68
2022/06/15 03:21:05;;;;;;;0.10;0.10;;;11.30;1.00;;;;;;5048178;28;20305;-67
2022/06/15 03:23:34;;;;;;;0.10;0.10;;;11.30;1.00;;;;;;5053594;28;20209;-67
2022/06/15 03:26:04;;;;;;;0.10;0.10;;;11.20;1.00;;;;;;5046539;28;20191;-67
2022/06/15 03:28:36;;;;;;;0.10;0.10;;;11.20;1.00;;;;;;5052682;28;20230;-68
2022/06/15 03:31:06;;;;;;;0.10;0.10;;;11.20;1.00;;;;;;5051027;28;20197;-68
2022/06/15 03:33:36;;;;;;;0.10;0.10;;;11.20;1.00;;;;;;5053929;28;20697;-68
2022/06/15 03:36:09;;;;;;;0.10;0.10;;;11.20;1.00;;;;;;5046450;28;20202;-68
2022/06/15 03:38:37;;;;;;;0.10;0.10;;;11.20;1.00;;;;;;5046904;28;20202;-67
2022/06/15 03:41:18;;;;;;;0.03;0.03;;;11.20;1.00;;;;;;5043345;28;20303;-68
2022/06/15 03:43:46;;;;;;;0.10;0.10;;;11.20;1.00;;;;;;5033584;28;20251;-68
2022/06/15 03:46:15;;;;;;;0.10;0.10;;;11.20;1.00;;;;;;5033490;28;20294;-66
2022/06/15 03:48:47;;;;;;;0.00;0.00;;;11.30;1.00;;;;;;5045450;28;20202;-66
2022/06/15 03:51:15;;;;;;;0.10;0.10;;;11.20;1.00;;;;;;5041740;28;20598;-66
2022/06/15 03:53:57;;;;;;;0.10;0.10;;;11.30;1.00;;;;;;5046878;28;20613;-66
2022/06/15 03:56:40;;;;;;;0.10;0.10;;;11.30;1.00;;;;;;5045635;28;20229;-66
2022/06/15 03:59:12;;;;;;;0.10;0.10;;;11.30;1.00;;;;;;5050335;28;20198;-66
2022/06/15 04:01:40;;;;;;;0.10;0.10;;;11.40;1.00;;;;;;5044191;28;20273;-65
2022/06/15 04:04:10;;;;;;;0.10;0.10;;;11.40;1.00;;;;;;5037075;28;20310;-65
2022/06/15 04:06:39;;;;;;;0.10;0.10;;;11.50;1.00;;;;;;5043229;28;20693;-66
2022/06/15 04:09:06;;;;;;;0.10;0.10;;;11.50;1.00;;;;;;5047817;28;20198;-66
2022/06/15 04:14:28;;;;;;;0.00;0.00;;;11.50;1.00;;;;;;5047789;28;20254;-66
2022/06/15 04:17:19;;;;;;;0.10;0.10;;;11.50;1.00;;;;;;5045168;28;20195;-66
2022/06/15 04:23:01;;;;;;;0.00;0.00;;;11.80;1.00;;;;;;4971043;28;20216;-66
2022/06/15 04:25:31;;;;;;;0.10;0.10;;;11.90;1.00;;;;;;5033224;28;20194;-67
2022/06/15 04:28:02;;;;;;;0.10;0.10;;;12.00;1.00;;;;;;5052226;28;20206;-67
2022/06/15 04:30:29;;;;;;;0.10;0.10;;;12.00;1.00;;;;;;5054350;28;20683;-67
2022/06/15 04:32:59;;;;;;;0.10;0.10;;;12.10;1.00;;;;;;5053774;28;20214;-67
2022/06/15 04:35:33;;;;;;;0.10;0.10;;;12.10;1.00;;;;;;5052083;28;20245;-67
2022/06/15 04:38:06;;;;;;;0.10;0.10;;;12.10;1.00;;;;;;5049252;28;20728;-67
2022/06/15 04:40:43;;;;;;;0.10;0.10;;;12.20;1.00;;;;;;5048158;28;20198;-67
2022/06/15 04:43:11;;;;;;;0.03;0.03;;;12.30;1.00;;;;;;5048223;28;20242;-67
2022/06/15 04:45:39;;;;;;;0.10;0.10;;;12.30;1.00;;;;;;5050271;28;20198;-67
2022/06/15 04:48:17;;;;;;;0.10;0.10;;;12.30;1.00;;;;;;5049134;28;20244;-67
2022/06/15 04:50:47;;;;;;;0.10;0.10;;;12.40;1.00;;;;;;5051500;28;20673;-68
2022/06/15 04:53:15;;;;;;;0.10;0.10;;;12.50;1.00;;;;;;5052539;28;20280;-68
2022/06/15 04:55:49;;;;;;;0.00;0.00;;;12.50;1.00;;;;;;5039368;28;20666;-67
2022/06/15 04:58:17;;;;;;;0.10;0.10;;;12.60;1.00;;;;;;5045556;28;20198;-67
2022/06/15 05:00:48;;;;;;;0.10;0.10;;;12.80;1.00;;;;;;5036733;28;20217;-67
2022/06/15 05:03:19;;;;;;;0.10;0.10;;;12.80;1.00;;;;;;5050990;28;20233;-67
2022/06/15 05:05:55;;;;;;;0.05;0.05;;;12.90;1.00;;;;;;5046695;28;20260;-67
2022/06/15 05:08:23;;;;;;;0.10;0.10;;;13.00;99.90;;;;;;5042154;28;20250;-68
2022/06/15 05:10:52;;;;;;;0.10;0.10;;;13.10;99.90;;;;;;5056474;28;20202;-67
2022/06/15 05:13:20;;;;;;;0.00;0.00;;;13.20;99.90;;;;;;5052912;28;20221;-66
2022/06/15 05:15:51;;;;;;;0.00;0.00;;;13.30;99.90;;;;;;5054442;28;20195;-67
2022/06/15 05:18:19;;;;;;;0.10;0.10;;;13.50;90.80;;;;;;5052979;28;20264;-67
2022/06/15 05:20:49;;;;;;;0.10;0.10;;;13.60;1.00;;;;;;5041357;28;20608;-67
2022/06/15 05:23:21;;;;;;;0.10;0.10;;;13.70;1.00;;;;;;5038157;28;20685;-67
2022/06/15 05:26:08;;;;;;;0.10;0.10;;;13.90;1.00;;;;;;5040595;28;20207;-67
2022/06/15 05:28:40;;;;;;;0.10;0.10;;;14.00;1.00;;;;;;5047378;28;20712;-67
2022/06/15 05:31:16;;;;;;;0.10;0.10;;;14.10;1.00;;;;;;5052585;28;20233;-67
2022/06/15 05:33:53;;;;;;;0.10;0.10;;;14.20;1.00;;;;;;5051420;28;20234;-67
2022/06/15 05:36:26;;;;;;;0.10;0.10;;;14.30;1.00;;;;;;5051103;28;20233;-67
2022/06/15 05:38:56;;;;;;;0.10;0.10;;;14.40;99.90;;;;;;5051072;28;20216;-67
2022/06/15 05:41:25;;;;;;;0.00;0.00;;;14.60;99.90;;;;;;5051630;28;20229;-67
2022/06/15 05:43:59;;;;;;;0.03;0.03;;;14.80;99.90;;;;;;5051249;28;20332;-67
2022/06/15 05:46:30;;;;;;;0.00;0.00;;;15.00;1.00;;;;;;5033606;28;20673;-67
2022/06/15 05:49:12;;;;;;;0.10;0.10;;;15.20;1.00;;;;;;5041551;28;20237;-67
2022/06/15 05:51:41;;;;;;;0.00;0.00;;;15.30;1.00;;;;;;5035556;28;20248;-67
2022/06/15 05:54:11;;;;;;;0.00;0.00;;;15.50;99.90;;;;;;5050735;28;20312;-67
2022/06/15 05:56:39;;;;;;;0.00;0.00;;;15.70;1.00;;;;;;5052501;28;20606;-67
2022/06/15 05:59:07;;;;;;;0.00;0.00;;;15.80;1.00;;;;;;5053174;28;20190;-67
2022/06/15 06:01:37;;;;;;;0.08;0.08;;;16.00;99.90;;;;;;5052234;28;20210;-67
2022/06/15 06:04:06;;;;;;;0.00;0.00;;;16.20;1.00;;;;;;5052085;28;20287;-67
2022/06/15 06:06:34;;;;;;;0.00;0.00;;;16.30;99.90;;;;;;5052093;28;20226;-67
2022/06/15 06:09:02;;;;;;;0.00;0.00;;;16.40;16.60;;;;;;5052185;28;20248;-67
2022/06/15 06:11:31;;;;;;;0.00;0.00;;;16.60;1.00;;;;;;5052239;28;20244;-67
2022/06/15 06:13:59;;;;;;;0.00;0.00;;;16.80;1.00;;;;;;5052347;28;20210;-67
2022/06/15 06:16:26;;;;;;;0.00;0.00;;;17.00;1.00;;;;;;5049530;28;20248;-67
2022/06/15 06:18:54;;;;;;;0.00;0.00;;;17.10;1.00;;;;;;5036045;28;20206;-68
2022/06/15 06:21:22;;;;;;;0.00;0.00;;;17.10;99.90;;;;;;5047267;28;20285;-68
2022/06/15 06:23:50;;;;;;;0.00;0.00;;;17.30;1.00;;;;;;5051848;28;20213;-67
2022/06/15 06:26:22;;;;;;;0.00;0.00;;;17.40;99.90;;;;;;5051617;28;20202;-67
2022/06/15 06:28:52;;;;;;;0.00;0.00;;;17.50;99.90;;;;;;5051586;28;20631;-67
2022/06/15 06:31:20;;;;;;;0.00;0.00;;;17.70;1.00;;;;;;5052036;28;20201;-67
2022/06/15 06:33:49;;;;;;;0.00;0.00;;;18.00;99.90;;;;;;5051708;28;20257;-67
2022/06/15 06:36:21;;;;;;;0.00;0.00;;;18.20;1.00;;;;;;5051268;28;20194;-67
2022/06/15 06:38:49;;;;;;;0.00;0.00;;;18.40;1.00;;;;;;5051621;28;20252;-67
2022/06/15 06:41:21;;;;;;;0.05;0.05;;;18.60;1.00;;;;;;5051690;28;20198;-67
2022/06/15 06:43:50;;;;;;;0.10;0.10;;;18.80;1.00;;;;;;5051406;28;20693;-67
2022/06/15 06:46:18;;;;;;;0.00;0.00;;;18.90;1.00;;;;;;5051347;28;20217;-67
2022/06/15 06:48:47;;;;;;;0.00;0.00;;;19.00;1.00;;;;;;5031357;28;20696;-68
2022/06/15 06:51:15;;;;;;;0.00;0.00;;;19.20;99.90;;;;;;5031949;28;20619;-67
2022/06/15 06:53:43;;;;;;;0.00;0.00;;;19.50;99.90;;;;;;5031832;28;20222;-67
2022/06/15 06:56:12;;;;;;;0.00;0.00;;;19.60;99.90;;;;;;5045006;28;20674;-67
2022/06/15 06:58:40;;;;;;;0.00;0.00;;;19.70;99.90;;;;;;5032907;28;20257;-67
2022/06/15 07:01:10;;;;;;;0.10;0.10;;;19.80;99.90;;;;;;5034473;28;20255;-67
2022/06/15 07:03:37;;;;;;;0.00;0.00;;;20.00;99.90;;;;;;5051459;28;20227;-66
2022/06/15 07:06:07;;;;;;;0.00;0.00;;;20.10;99.90;;;;;;5051970;28;20281;-66
2022/06/15 07:08:37;;;;;;;0.00;0.00;;;20.20;99.90;;;;;;5051019;28;20196;-67
2022/06/15 07:11:08;;;;;;;0.00;0.00;;;20.30;99.90;;;;;;5051009;28;20522;-67
2022/06/15 07:13:36;;;;;;;0.00;0.00;;;20.40;99.90;;;;;;5049908;28;20210;-67
2022/06/15 07:16:05;;;;;;;0.00;0.00;;;20.60;99.90;;;;;;5051047;28;20206;-67
2022/06/15 07:18:35;;;;;;;0.00;0.00;;;20.70;99.90;;;;;;5050609;28;20194;-67
2022/06/15 07:21:03;;;;;;;0.00;0.00;;;20.90;92.80;;;;;;5051132;28;20194;-67
2022/06/15 07:23:31;;;;;;;0.00;0.00;;;21.10;95.80;;;;;;5050825;28;20280;-67
2022/06/15 07:26:03;;;;;;;0.00;0.00;;;21.10;87.80;;;;;;5049102;28;20199;-67
2022/06/15 07:28:31;;;;;;;0.00;0.00;;;21.30;74.60;;;;;;5051050;28;20202;-67
2022/06/15 07:30:59;;;;;;;0.00;0.00;;;21.40;52.40;;;;;;5051047;28;20206;-67
2022/06/15 07:33:27;;;;;;;0.00;0.00;;;21.60;35.90;;;;;;5050842;28;20222;-65
2022/06/15 07:35:56;;;;;;;0.00;0.00;;;21.80;25.10;;;;;;5050603;28;20232;-68
2022/06/15 07:38:24;;;;;;;0.00;0.00;;;21.90;9.60;;;;;;5050389;28;20203;-68
2022/06/15 07:40:57;;;;;;;0.00;0.00;;;22.00;5.90;;;;;;5051275;28;20290;-65
2022/06/15 07:43:25;;;;;;;0.00;0.00;;;22.10;5.30;;;;;;5050914;28;20226;-66
2022/06/15 07:45:53;;;;;;;0.00;0.00;;;22.30;1.00;;;;;;5049749;28;20230;-66
2022/06/15 07:51:09;;;;;;;0.00;0.00;;;22.60;1.00;;;;;;5036312;28;20195;-69
2022/06/15 07:53:37;;;;;;;0.00;0.00;;;22.70;1.00;;;;;;5050057;28;20227;-67
2022/06/15 07:56:06;;;;;;;0.00;0.00;;;22.90;1.00;;;;;;5051046;28;20657;-66
2022/06/15 07:58:33;;;;;;;0.00;0.00;;;23.00;1.00;;;;;;5050328;28;20199;-66
2022/06/15 08:01:01;;;;;;;0.00;0.00;;;23.20;1.00;;;;;;5051010;28;20194;-66
2022/06/15 08:03:29;;;;;;;0.00;0.00;;;23.40;1.00;;;;;;5044033;28;20268;-66
2022/06/15 08:05:57;;;;;;;0.00;0.00;;;23.50;1.00;;;;;;5034330;28;20568;-66
2022/06/15 08:08:26;;;;;;;0.00;0.00;;;23.60;1.00;;;;;;5047974;28;20207;-66
2022/06/15 08:10:54;;;;;;;0.00;0.00;;;23.60;1.00;;;;;;5049750;28;20242;-66
2022/06/15 08:13:22;;;;;;;0.00;0.00;;;23.80;1.00;;;;;;5050850;28;20328;-66
2022/06/15 08:15:52;;;;;;;0.00;0.00;;;23.80;1.00;;;;;;5053314;28;20210;-66
2022/06/15 08:18:23;;;;;;;0.00;0.00;;;24.10;1.00;;;;;;5054139;28;20213;-66
2022/06/15 08:20:54;;;;;;;0.00;0.00;;;24.20;1.00;;;;;;5054780;28;20687;-67
2022/06/15 08:23:25;;;;;;;0.00;0.00;;;24.40;1.00;;;;;;5056294;28;20218;-66
2022/06/15 08:25:57;;;;;;;0.00;0.00;;;24.50;1.00;;;;;;5055361;28;20187;-66
2022/06/15 08:28:30;;;;;;;0.00;0.00;;;24.80;1.00;;;;;;5051093;28;20223;-66
2022/06/15 08:30:58;;;;;;;0.00;0.00;;;25.00;1.00;;;;;;5035799;28;20222;-66
2022/06/15 08:33:27;;;;;;;0.00;0.00;;;25.10;1.00;;;;;;5052554;28;20260;-66
2022/06/15 08:35:55;;;;;;;0.00;0.00;;;25.10;1.00;;;;;;5053903;28;20729;-66
2022/06/15 08:38:25;;;;;;;0.00;0.00;;;25.10;1.00;;;;;;5053881;28;20743;-67
2022/06/15 08:40:58;;;;;;;0.00;0.00;;;25.00;1.00;;;;;;5054526;28;20195;-67
2022/06/15 08:43:38;;;;;;;0.00;0.00;;;24.90;1.00;;;;;;5053335;28;20222;-67
2022/06/15 08:46:17;;;;;;;0.00;0.00;;;25.20;1.00;;;;;;5049576;28;20248;-67
2022/06/15 08:48:58;;;;;;;0.00;0.00;;;25.30;1.00;;;;;;5052989;28;20205;-66
2022/06/15 08:51:31;;;;;;;0.00;0.00;;;25.30;1.00;;;;;;5039177;28;20213;-66
2022/06/15 08:54:04;;;;;;;0.00;0.00;;;25.30;1.00;;;;;;5033945;28;20218;-66
2022/06/15 08:56:40;;;;;;;0.00;0.00;;;25.30;1.00;;;;;;5045926;28;20191;-66
2022/06/15 08:59:15;;;;;;;0.00;0.00;;;25.40;1.00;;;;;;5048717;28;20197;-67
2022/06/15 09:01:50;;;;;;;0.00;0.00;;;25.60;1.00;;;;;;5048157;28;20205;-67
2022/06/15 09:04:35;;;;;;;0.00;0.00;;;25.80;1.00;;;;;;5043706;28;20272;-67
2022/06/15 09:07:16;;;;;;;0.10;0.10;;;25.80;1.00;;;;;;5049850;28;20210;-67
2022/06/15 09:10:01;;;;;;;0.00;0.00;;;25.70;1.00;;;;;;5067894;28;20194;-67
2022/06/15 09:12:53;;;;;;;0.00;0.00;;;26.00;1.00;;;;;;5053977;28;20316;-67
2022/06/15 09:15:32;;;;;;;0.00;0.00;;;26.20;1.00;;;;;;5053661;28;20194;-67
2022/06/15 09:18:04;;;;;;;0.00;0.00;;;26.10;1.00;;;;;;5052243;28;20695;-67
2022/06/15 09:20:39;;;;;;;0.00;0.00;;;26.30;1.00;;;;;;5041011;28;20203;-66
2022/06/15 09:23:12;;;;;;;0.00;0.00;;;26.30;1.00;;;;;;5043505;28;20222;-66
2022/06/15 09:25:46;;;;;;;0.00;0.00;;;26.50;1.00;;;;;;5050662;28;20205;-67
2022/06/15 09:28:25;;;;;;;0.00;0.00;;;26.50;1.00;;;;;;5053247;28;20198;-67
2022/06/15 09:30:57;;;;;;;0.00;0.00;;;26.70;1.00;;;;;;5049668;28;20206;-67
2022/06/15 09:33:32;;;;;;;0.00;0.00;;;26.70;1.00;;;;;;5045023;28;20214;-67
2022/06/15 09:36:08;;;;;;;0.00;0.00;;;26.80;1.00;;;;;;5052828;28;20214;-67
2022/06/15 09:38:37;;;;;;;0.00;0.00;;;27.00;1.00;;;;;;5052308;28;20220;-67
2022/06/15 09:41:10;;;;;;;0.00;0.00;;;26.90;1.00;;;;;;5053804;28;20256;-67
2022/06/15 09:43:47;;;;;;;0.00;0.00;;;26.70;1.00;;;;;;5053187;28;20237;-67
2022/06/15 09:46:23;;;;;;;0.00;0.00;;;26.80;1.00;;;;;;5052931;28;20496;-67
2022/06/15 09:49:05;;;;;;;0.00;0.00;;;27.00;1.00;;;;;;5052345;28;20202;-67
2022/06/15 09:51:44;;;;;;;0.00;0.00;;;26.90;1.00;;;;;;5052863;28;20197;-67
2022/06/15 09:54:25;;;;;;;0.00;0.00;;;26.80;1.00;;;;;;5052269;28;20296;-67
2022/06/15 09:56:53;;;;;;;0.00;0.00;;;27.00;1.00;;;;;;5051420;28;20214;-67
2022/06/15 09:59:25;;;;;;;0.00;0.00;;;26.80;1.00;;;;;;5052555;28;20202;-67
2022/06/15 10:01:53;;;;;;;0.00;0.00;;;26.80;1.00;;;;;;5052622;28;20198;-67
2022/06/15 10:04:24;;;;;;;0.00;0.00;;;27.10;1.00;;;;;;5048482;28;20230;-67
2022/06/15 10:07:18;;;;;;;0.00;0.00;;;27.40;1.00;;;;;;5032580;28;20685;-67
2022/06/15 10:09:51;;;;;;;0.00;0.00;;;27.60;1.00;;;;;;5033139;28;20205;-67
2022/06/15 10:12:57;;;;;;;0.00;0.00;;;27.90;1.00;;;;;;5049408;28;20605;-67
2022/06/15 10:15:34;;;;;;;0.00;0.00;;;27.90;1.00;;;;;;5051917;28;20186;-67
2022/06/15 10:18:17;;;;;;;0.00;0.00;;;27.90;1.00;;;;;;5046132;28;20198;-68
2022/06/15 10:20:58;;;;;;;0.00;0.00;;;28.00;1.00;;;;;;5047595;28;20203;-68
2022/06/15 10:23:39;;;;;;;0.00;0.00;;;28.00;1.00;;;;;;5032403;28;20222;-68
2022/06/15 10:26:10;;;;;;;0.00;0.00;;;27.90;1.00;;;;;;5046432;28;20198;-67
2022/06/15 10:28:40;;;;;;;0.00;0.00;;;27.80;1.00;;;;;;5052645;28;20244;-67
2022/06/15 10:31:14;;;;;;;0.00;0.00;;;27.80;1.00;;;;;;5052517;28;20248;-68
2022/06/15 10:33:46;;;;;;;0.00;0.00;;;27.80;1.00;;;;;;5051583;28;20301;-67
2022/06/15 10:36:22;;;;;;;0.00;0.00;;;28.00;1.00;;;;;;5051676;28;20202;-67
2022/06/15 10:38:55;;;;;;;0.00;0.00;;;27.80;1.00;;;;;;5052259;28;20198;-68
2022/06/15 10:41:48;;;;;;;0.00;0.00;;;28.00;1.00;;;;;;5052584;28;20212;-68
2022/06/15 10:44:28;;;;;;;0.00;0.00;;;28.10;1.00;;;;;;5049684;28;20233;-67
2022/06/15 10:47:03;;;;;;;0.00;0.00;;;28.40;1.00;;;;;;5049571;28;20202;-68
2022/06/15 10:49:34;;;;;;;0.00;0.00;;;28.40;1.00;;;;;;5049063;28;20683;-68
2022/06/15 10:52:14;;;;;;;0.00;0.00;;;28.40;1.00;;;;;;5051557;28;20194;-67
2022/06/15 11:03:17;;;;;;;0.00;0.00;;;28.70;1.00;;;;;;5040512;28;20215;-68
2022/06/15 11:05:47;;;;;;;0.00;0.00;;;29.00;1.00;;;;;;5039947;28;20775;-68
2022/06/15 11:08:18;;;;;;;0.00;0.00;;;29.10;1.00;;;;;;5043756;28;20198;-68
2022/06/15 11:10:49;;;;;;;0.00;0.00;;;28.90;1.00;;;;;;5044831;28;20605;-68
2022/06/15 11:13:31;;;;;;;0.00;0.00;;;29.00;1.00;;;;;;5041941;28;20267;-68
2022/06/15 11:19:07;;;;;;;0.00;0.00;;;29.30;1.00;;;;;;5050130;28;20195;-68
2022/06/15 11:21:41;;;;;;;0.00;0.00;;;29.50;1.00;;;;;;5051814;28;20204;-68
2022/06/15 11:24:21;;;;;;;0.00;0.00;;;29.30;1.00;;;;;;5047545;28;20317;-68
2022/06/15 11:26:54;;;;;;;0.00;0.00;;;29.60;1.00;;;;;;5050546;28;20584;-68
2022/06/15 11:29:39;;;;;;;0.00;0.00;;;29.90;1.00;;;;;;5051341;28;20225;-68
2022/06/15 11:32:21;;;;;;;0.00;0.00;;;29.80;1.00;;;;;;5051332;28;20563;-68
2022/06/15 11:34:57;;;;;;;0.00;0.00;;;29.60;1.00;;;;;;5050892;28;20376;-68
2022/06/15 11:37:29;;;;;;;0.00;0.00;;;29.60;1.00;;;;;;5050829;28;20192;-67
2022/06/15 11:40:08;;;;;;;0.00;0.00;;;29.60;1.00;;;;;;5050946;28;20581;-68
2022/06/15 11:42:35;;;;;;;0.00;0.00;;;29.50;1.00;;;;;;5050943;28;20224;-67
2022/06/15 11:45:06;;;;;;;0.00;0.00;;;29.80;1.00;;;;;;5054118;28;20305;-67
2022/06/15 11:47:47;;;;;;;0.00;0.00;;;30.00;1.00;;;;;;5054669;28;20198;-68
2022/06/15 11:50:23;;;;;;;0.00;0.00;;;30.10;1.00;;;;;;5055300;28;20550;-67
2022/06/15 11:52:59;;;;;;;0.00;0.00;;;29.80;1.00;;;;;;5055422;28;20283;-67
2022/06/15 11:55:38;;;;;;;0.00;0.00;;;29.60;1.00;;;;;;5055188;28;20190;-67
2022/06/15 11:58:34;;;;;;;0.00;0.00;;;29.90;1.00;;;;;;5055036;28;20206;-68
2022/06/15 12:01:11;;;;;;;0.00;0.00;;;30.20;1.00;;;;;;5055979;28;20260;-65
2022/06/15 12:03:53;;;;;;;0.00;0.00;;;30.00;1.00;;;;;;5057260;28;20589;-66
2022/06/15 12:06:27;;;;;;;0.00;0.00;;;29.80;1.00;;;;;;5055462;28;20296;-65
2022/06/15 12:09:04;;;;;;;0.00;0.00;;;30.10;1.00;;;;;;5051279;28;20203;-67
2022/06/15 12:14:42;;;;;;;0.00;0.00;;;30.10;1.00;;;;;;5034770;28;20222;-65
2022/06/15 12:17:15;;;;;;;0.00;0.00;;;30.00;1.00;;;;;;5040969;28;20190;-65
2022/06/15 12:19:50;;;;;;;0.00;0.00;;;29.90;1.00;;;;;;5054418;28;20210;-66
2022/06/15 12:22:27;;;;;;;0.00;0.00;;;29.50;1.00;;;;;;5054501;28;20198;-66
2022/06/15 12:25:01;;;;;;;0.00;0.00;;;29.70;1.00;;;;;;5054354;28;20214;-66
2022/06/15 12:27:39;;;;;;;0.00;0.00;;;29.80;1.00;;;;;;5053765;28;20206;-66
2022/06/15 12:30:26;;;;;;;0.00;0.00;;;30.10;1.00;;;;;;5054137;28;20198;-66
2022/06/15 12:33:04;;;;;;;0.00;0.00;;;30.30;1.00;;;;;;5059803;28;20233;-66
2022/06/15 12:35:39;;;;;;;0.00;0.00;;;30.60;1.00;;;;;;5053844;28;20513;-66
2022/06/15 12:38:20;;;;;;;0.00;0.00;;;30.20;1.00;;;;;;5050810;28;20194;-66
2022/06/15 12:40:51;;;;;;;0.00;0.00;;;30.30;1.00;;;;;;5052734;28;20202;-66
2022/06/15 12:43:32;;;;;;;0.00;0.00;;;30.30;1.00;;;;;;5047388;28;20630;-66
2022/06/15 12:46:07;;;;;;;0.00;0.00;;;30.70;1.00;;;;;;5037053;28;20279;-67
2022/06/15 12:48:50;;;;;;;0.00;0.00;;;30.70;1.00;;;;;;5053226;28;20664;-67
2022/06/15 12:51:28;;;;;;;0.00;0.00;;;30.30;1.00;;;;;;5044780;28;20628;-67
2022/06/15 12:54:11;;;;;;;0.00;0.00;;;30.00;1.00;;;;;;5073260;22;20227;-68
2022/06/15 12:56:47;;;;;;;0.00;0.00;;;29.40;1.00;;;;;;5071979;28;20189;-69
2022/06/15 12:59:31;;;;;;;0.00;0.00;;;29.40;1.00;;;;;;5074072;28;20200;-70
2022/06/15 13:02:09;;;;;;;0.00;0.00;;;29.70;1.00;;;;;;5073764;28;20603;-70
2022/06/15 13:04:45;;;;;;;0.00;0.00;;;30.10;1.00;;;;;;5081451;28;20209;-69
2022/06/15 13:07:20;;;;;;;0.00;0.00;;;30.10;1.00;;;;;;5073168;28;20217;-69
2022/06/15 13:10:17;;;;;;;0.00;0.00;;;30.20;1.00;;;;;;5073751;28;20297;-69
2022/06/15 13:12:49;;;;;;;0.00;0.00;;;30.20;1.00;;;;;;5073716;28;20198;-69
2022/06/15 13:15:22;;;;;;;0.00;0.00;;;30.30;1.00;;;;;;5072791;28;20225;-70
2022/06/15 13:18:07;;;;;;;0.00;0.00;;;30.40;1.00;;;;;;5066108;28;20202;-70
2022/06/15 13:21:09;;;;;;;0.00;0.00;;;29.80;1.00;;;;;;5072711;28;20221;-70
2022/06/15 13:23:39;;;;;;;0.00;0.00;;;29.60;1.00;;;;;;5070876;28;20213;-70
2022/06/15 13:26:13;;;;;;;0.00;0.00;;;29.70;1.00;;;;;;5066496;28;20226;-70
2022/06/15 13:28:44;;;;;;;0.00;0.00;;;29.80;1.00;;;;;;5072613;28;20597;-70
2022/06/15 13:31:14;;;;;;;0.00;0.00;;;29.80;1.00;;;;;;5073499;28;20216;-70
2022/06/15 13:34:03;;;;;;;0.00;0.00;;;29.90;1.00;;;;;;5067703;28;20508;-70
2022/06/15 13:36:32;;;;;;;0.00;0.00;;;29.50;1.00;;;;;;5066547;28;20193;-69
2022/06/15 13:39:00;;;;;;;0.00;0.00;;;29.60;1.00;;;;;;5072959;28;20549;-70
2022/06/15 13:41:33;;;;;;;0.00;0.00;;;29.30;1.00;;;;;;5071529;28;20574;-70
2022/06/15 13:44:13;;;;;;;0.00;0.00;;;29.00;1.00;;;;;;5053104;28;20280;-71
2022/06/15 13:46:52;;;;;;;0.00;0.00;;;29.30;1.00;;;;;;5070529;28;20308;-70
2022/06/15 13:49:29;;;;;;;0.00;0.00;;;29.30;1.00;;;;;;5073077;28;20542;-70
2022/06/15 13:52:00;;;;;;;0.00;0.00;;;29.40;1.00;;;;;;5075325;28;21186;-70